createdAt,value
2018-12-27T00:01:41.580Z,6.90
2018-12-27T00:04:46.269Z,7.00
2018-12-27T00:07:48.934Z,7.00
2018-12-27T00:10:51.593Z,6.90
2018-12-27T00:13:54.335Z,7.00
2018-12-27T00:16:56.897Z,7.00
2018-12-27T00:19:59.434Z,7.00
2018-12-27T00:23:02.243Z,7.00
2018-12-27T00:26:05.311Z,7.00
2018-12-27T00:29:09.049Z,7.10
2018-12-27T00:32:12.033Z,7.00
2018-12-27T00:35:16.909Z,7.10
2018-12-27T00:38:19.442Z,7.10
2018-12-27T00:41:22.280Z,7.10
2018-12-27T00:44:25.083Z,7.10
2018-12-27T00:47:29.613Z,7.10
2018-12-27T00:50:32.277Z,7.20
2018-12-27T00:53:34.892Z,7.10
2018-12-27T00:56:37.474Z,7.20
2018-12-27T00:59:40.120Z,7.20
2018-12-27T01:02:45.268Z,7.10
2018-12-27T01:05:47.876Z,7.20
2018-12-27T01:08:50.598Z,7.20
2018-12-27T01:11:53.361Z,7.10
2018-12-27T01:14:56.023Z,7.20
2018-12-27T01:17:58.794Z,7.10
2018-12-27T01:21:01.377Z,7.20
2018-12-27T01:24:04.116Z,7.20
2018-12-27T01:27:06.755Z,7.20
2018-12-27T01:30:11.376Z,7.20
2018-12-27T01:33:18.724Z,7.20
2018-12-27T01:36:19.148Z,7.20
2018-12-27T01:39:21.696Z,7.20
2018-12-27T01:42:26.566Z,7.20
2018-12-27T01:45:29.255Z,7.20
2018-12-27T01:48:31.905Z,7.20
2018-12-27T01:51:34.461Z,7.20
2018-12-27T01:54:38.208Z,7.20
2018-12-27T01:57:40.694Z,7.20
2018-12-27T02:00:45.834Z,7.20
2018-12-27T02:03:49.757Z,7.20
2018-12-27T02:06:52.609Z,7.30
2018-12-27T02:09:55.264Z,7.20
2018-12-27T02:12:57.963Z,7.20
2018-12-27T02:16:00.580Z,7.30
2018-12-27T02:19:13.267Z,7.30
2018-12-27T02:22:15.927Z,7.30
2018-12-27T02:25:20.592Z,7.30
2018-12-27T02:28:28.269Z,7.30
2018-12-27T02:31:31.134Z,7.30
2018-12-27T02:34:33.794Z,7.40
2018-12-27T02:37:36.337Z,7.30
2018-12-27T02:40:41.194Z,7.40
2018-12-27T02:43:47.127Z,7.40
2018-12-27T02:46:50.093Z,7.40
2018-12-27T02:49:55.959Z,7.40
2018-12-27T02:52:58.612Z,7.40
2018-12-27T02:56:01.303Z,7.40
2018-12-27T02:59:08.465Z,7.40
2018-12-27T03:02:12.334Z,7.40
2018-12-27T03:05:20.227Z,7.40
2018-12-27T03:08:24.205Z,7.40
2018-12-27T03:11:29.577Z,7.40
2018-12-27T03:14:41.346Z,7.40
2018-12-27T03:17:48.346Z,7.40
2018-12-27T03:20:58.854Z,7.40
2018-12-27T03:24:01.892Z,7.40
2018-12-27T03:27:07.317Z,7.40
2018-12-27T03:30:09.939Z,7.50
2018-12-27T03:33:13.047Z,7.40
2018-12-27T03:36:19.113Z,7.40
2018-12-27T03:39:21.945Z,7.50
2018-12-27T03:42:24.616Z,7.40
2018-12-27T03:45:27.388Z,7.40
2018-12-27T03:48:33.483Z,7.40
2018-12-27T03:51:44.580Z,7.40
2018-12-27T03:54:54.517Z,7.40
2018-12-27T03:58:01.137Z,7.40
2018-12-27T04:01:06.028Z,7.40
2018-12-27T04:04:10.418Z,7.40
2018-12-27T04:07:15.922Z,7.30
2018-12-27T04:10:18.578Z,7.40
2018-12-27T04:13:21.262Z,7.40
2018-12-27T04:16:24.574Z,7.40
2018-12-27T04:19:27.466Z,7.40
2018-12-27T04:22:31.319Z,7.50
2018-12-27T04:25:34.502Z,7.50
2018-12-27T04:28:37.139Z,7.50
2018-12-27T04:31:41.756Z,7.50
2018-12-27T04:34:44.593Z,7.50
2018-12-27T04:37:47.268Z,7.60
2018-12-27T04:40:50.425Z,7.50
2018-12-27T04:43:56.566Z,7.60
2018-12-27T04:46:59.123Z,7.50
2018-12-27T04:50:01.841Z,7.50
2018-12-27T04:53:04.920Z,7.50
2018-12-27T04:56:07.776Z,7.50
2018-12-27T04:59:10.309Z,7.50
2018-12-27T05:02:13.959Z,7.50
2018-12-27T05:05:17.431Z,7.50
2018-12-27T05:08:20.016Z,7.50
2018-12-27T05:11:22.585Z,7.50
2018-12-27T05:14:25.485Z,7.50
2018-12-27T05:17:30.231Z,7.50
2018-12-27T05:20:32.769Z,7.50
2018-12-27T05:23:35.299Z,7.50
2018-12-27T05:26:39.260Z,7.60
2018-12-27T05:29:41.842Z,7.50
2018-12-27T05:32:44.529Z,7.40
2018-12-27T05:35:47.210Z,7.40
2018-12-27T05:38:49.912Z,7.40
2018-12-27T05:41:53.437Z,7.40
2018-12-27T05:44:55.972Z,7.40
2018-12-27T05:47:58.574Z,7.40
2018-12-27T05:51:01.457Z,7.50
2018-12-27T05:54:04.228Z,7.40
2018-12-27T05:57:07.687Z,7.40
2018-12-27T06:00:10.331Z,7.50
2018-12-27T06:03:12.892Z,7.50
2018-12-27T06:06:15.661Z,7.40
2018-12-27T06:09:18.436Z,7.40
2018-12-27T06:12:21.115Z,7.40
2018-12-27T06:15:23.722Z,7.40
2018-12-27T06:18:28.930Z,7.40
2018-12-27T06:21:31.628Z,7.40
2018-12-27T06:24:34.697Z,7.50
2018-12-27T06:27:37.230Z,7.50
2018-12-27T06:30:39.940Z,7.50
2018-12-27T06:33:44.811Z,7.60
2018-12-27T06:36:47.647Z,7.70
2018-12-27T06:39:50.298Z,7.70
2018-12-27T06:42:52.931Z,7.80
2018-12-27T06:45:55.538Z,7.80
2018-12-27T06:49:00.280Z,7.80
2018-12-27T06:52:05.686Z,7.80
2018-12-27T06:55:08.546Z,7.80
2018-12-27T06:58:11.196Z,7.80
2018-12-27T07:01:13.711Z,7.70
2018-12-27T07:04:16.388Z,7.70
2018-12-27T07:07:19.081Z,7.60
2018-12-27T07:16:29.197Z,7.60
2018-12-27T07:23:20.506Z,7.70
2018-12-27T07:26:23.274Z,7.70
2018-12-27T07:29:25.948Z,7.70
2018-12-27T07:32:28.453Z,7.70
2018-12-27T07:35:31.021Z,7.70
2018-12-27T07:38:33.916Z,7.60
2018-12-27T07:41:36.398Z,7.70
2018-12-27T07:44:44.344Z,7.60
2018-12-27T07:47:49.598Z,7.60
2018-12-27T07:50:53.690Z,7.70
2018-12-27T07:53:56.248Z,7.70
2018-12-27T07:57:06.777Z,7.70
2018-12-27T08:00:11.267Z,7.70
2018-12-27T08:03:13.906Z,7.70
2018-12-27T08:06:18.393Z,7.70
2018-12-27T08:09:22.279Z,7.70
2018-12-27T08:12:25.589Z,7.60
2018-12-27T08:15:28.324Z,7.60
2018-12-27T08:18:31.072Z,7.60
2018-12-27T08:21:33.815Z,7.60
2018-12-27T08:24:36.760Z,7.70
2018-12-27T08:27:41.981Z,7.70
2018-12-27T08:30:44.721Z,7.70
2018-12-27T08:33:48.364Z,7.70
2018-12-27T08:36:51.156Z,7.70
2018-12-27T08:39:54.540Z,7.70
2018-12-27T08:43:02.500Z,7.70
2018-12-27T08:46:07.894Z,7.70
2018-12-27T08:49:11.766Z,7.70
2018-12-27T08:52:19.856Z,7.70
2018-12-27T08:55:24.803Z,7.70
2018-12-27T08:58:30.119Z,7.70
2018-12-27T09:01:33.361Z,7.70
2018-12-27T09:04:36.332Z,7.70
2018-12-27T09:07:39.487Z,7.80
2018-12-27T09:10:42.170Z,7.80
2018-12-27T09:13:46.251Z,7.70
2018-12-27T09:16:49.046Z,7.70
2018-12-27T09:19:52.855Z,7.70
2018-12-27T09:22:55.525Z,7.80
2018-12-27T09:25:58.347Z,7.70
2018-12-27T09:29:01.127Z,7.70
2018-12-27T09:32:04.310Z,7.70
2018-12-27T09:35:07.094Z,7.80
2018-12-27T09:38:12.509Z,7.80
2018-12-27T09:41:15.168Z,7.70
2018-12-27T09:44:17.808Z,7.70
2018-12-27T09:47:20.541Z,7.70
2018-12-27T09:50:23.190Z,7.70
2018-12-27T09:53:25.695Z,7.60
2018-12-27T09:56:28.305Z,7.70
2018-12-27T09:59:30.824Z,7.70
2018-12-27T10:02:33.423Z,7.70
2018-12-27T10:05:35.951Z,7.70
2018-12-27T10:08:38.603Z,7.70
2018-12-27T10:11:41.329Z,7.60
2018-12-27T10:14:43.901Z,7.60
2018-12-27T10:17:46.583Z,7.60
2018-12-27T10:20:49.352Z,7.60
2018-12-27T10:23:52.057Z,7.60
2018-12-27T10:26:54.709Z,7.70
2018-12-27T10:29:58.245Z,7.70
2018-12-27T10:33:01.052Z,7.70
2018-12-27T10:36:03.869Z,7.70
2018-12-27T10:39:09.433Z,7.80
2018-12-27T10:42:12.131Z,7.80
2018-12-27T10:45:15.272Z,7.90
2018-12-27T10:48:19.115Z,8.00
2018-12-27T10:51:22.989Z,8.00
2018-12-27T10:54:25.720Z,8.00
2018-12-27T10:57:28.409Z,8.10
2018-12-27T11:00:31.434Z,8.00
2018-12-27T11:03:34.152Z,7.90
2018-12-27T11:06:36.825Z,8.00
2018-12-27T11:09:39.447Z,8.00
2018-12-27T11:12:42.005Z,8.00
2018-12-27T11:15:44.652Z,7.90
2018-12-27T11:18:47.169Z,7.90
2018-12-27T11:21:49.752Z,7.80
2018-12-27T11:24:52.253Z,7.90
2018-12-27T11:27:58.565Z,7.90
2018-12-27T11:31:02.243Z,8.00
2018-12-27T11:34:09.796Z,8.00
2018-12-27T11:37:15.096Z,8.00
2018-12-27T11:40:20.529Z,8.00
2018-12-27T11:43:23.077Z,8.00
2018-12-27T11:46:25.914Z,8.00
2018-12-27T11:49:28.503Z,8.00
2018-12-27T11:52:31.502Z,8.00
2018-12-27T11:55:35.032Z,8.10
2018-12-27T11:58:37.571Z,8.20
2018-12-27T12:01:40.167Z,8.30
2018-12-27T12:04:42.768Z,8.40
2018-12-27T12:07:45.333Z,8.50
2018-12-27T12:10:47.951Z,8.60
2018-12-27T12:13:50.493Z,8.80
2018-12-27T12:16:53.204Z,8.90
2018-12-27T12:19:55.855Z,8.80
2018-12-27T12:22:58.420Z,8.80
2018-12-27T12:26:01.044Z,8.80
2018-12-27T12:29:03.918Z,8.90
2018-12-27T12:32:06.434Z,8.70
2018-12-27T12:35:08.998Z,8.30
2018-12-27T12:38:12.215Z,8.20
2018-12-27T12:41:16.796Z,8.00
2018-12-27T12:44:19.409Z,8.10
2018-12-27T12:47:22.030Z,8.10
2018-12-27T12:50:24.587Z,8.00
2018-12-27T12:53:28.180Z,8.00
2018-12-27T12:56:33.054Z,8.10
2018-12-27T12:59:35.814Z,8.10
2018-12-27T13:02:38.420Z,8.20
2018-12-27T13:05:40.998Z,8.40
2018-12-27T13:08:43.516Z,8.90
2018-12-27T13:11:55.011Z,9.10
2018-12-27T13:14:58.572Z,9.00
2018-12-27T13:18:01.111Z,8.60
2018-12-27T13:21:03.792Z,8.30
2018-12-27T13:24:06.619Z,8.20
2018-12-27T13:27:09.226Z,8.20
2018-12-27T13:30:13.281Z,8.10
2018-12-27T13:33:16.232Z,8.10
2018-12-27T13:36:25.353Z,7.90
2018-12-27T13:39:24.092Z,7.90
2018-12-27T13:42:26.973Z,7.90
2018-12-27T13:45:29.680Z,7.70
2018-12-27T13:48:32.372Z,7.70
2018-12-27T13:51:35.111Z,7.70
2018-12-27T13:54:39.524Z,7.70
2018-12-27T13:57:42.394Z,7.60
2018-12-27T14:00:45.220Z,7.60
2018-12-27T14:03:47.919Z,7.50
2018-12-27T14:06:51.821Z,7.40
2018-12-27T14:09:54.380Z,7.20
2018-12-27T14:13:08.538Z,7.20
2018-12-27T14:16:11.812Z,7.20
2018-12-27T14:19:14.846Z,7.20
2018-12-27T14:22:17.399Z,7.10
2018-12-27T14:25:20.332Z,7.10
2018-12-27T14:28:22.864Z,7.00
2018-12-27T14:31:25.790Z,7.10
2018-12-27T14:34:28.845Z,7.00
2018-12-27T14:37:31.706Z,6.90
2018-12-27T14:40:34.923Z,6.90
2018-12-27T14:43:39.033Z,6.90
2018-12-27T14:46:41.935Z,6.90
2018-12-27T14:49:45.826Z,6.90
2018-12-27T14:52:48.626Z,6.80
2018-12-27T14:55:51.355Z,6.80
2018-12-27T14:58:54.181Z,6.80
2018-12-27T15:01:56.858Z,6.80
2018-12-27T15:04:59.569Z,6.80
2018-12-27T15:08:03.128Z,6.80
2018-12-27T15:11:06.748Z,6.80
2018-12-27T15:14:09.482Z,6.80
2018-12-27T15:17:12.459Z,6.80
2018-12-27T15:20:15.505Z,6.90
2018-12-27T15:23:18.734Z,6.90
2018-12-27T15:26:21.536Z,6.90
2018-12-27T15:29:25.185Z,6.90
2018-12-27T15:32:27.941Z,6.80
2018-12-27T15:35:30.651Z,6.80
2018-12-27T15:38:33.446Z,6.80
2018-12-27T15:41:36.720Z,6.80
2018-12-27T15:44:41.909Z,6.80
2018-12-27T15:47:46.384Z,6.80
2018-12-27T15:50:55.519Z,6.80
2018-12-27T15:53:59.428Z,6.70
2018-12-27T15:57:02.652Z,6.80
2018-12-27T16:00:05.745Z,6.80
2018-12-27T16:03:08.493Z,6.80
2018-12-27T16:06:11.268Z,6.80
2018-12-27T16:09:15.518Z,6.80
2018-12-27T16:12:21.839Z,6.80
2018-12-27T16:15:24.877Z,6.80
2018-12-27T16:18:28.800Z,6.80
2018-12-27T16:21:49.269Z,6.80
2018-12-27T16:24:52.511Z,6.80
2018-12-27T16:27:59.547Z,6.80
2018-12-27T16:31:02.241Z,6.80
2018-12-27T16:34:05.941Z,6.80
2018-12-27T16:37:12.972Z,6.80
2018-12-27T16:40:18.811Z,6.80
2018-12-27T16:43:21.452Z,6.70
2018-12-27T16:46:27.930Z,6.70
2018-12-27T16:49:34.242Z,6.70
2018-12-27T16:52:37.661Z,6.70
2018-12-27T16:55:40.425Z,6.70
2018-12-27T16:58:46.161Z,6.60
2018-12-27T17:01:49.149Z,6.60
2018-12-27T17:04:52.184Z,6.60
2018-12-27T17:07:54.864Z,6.50
2018-12-27T17:10:59.115Z,6.50
2018-12-27T17:14:03.115Z,6.50
2018-12-27T17:17:06.188Z,6.50
2018-12-27T17:20:10.175Z,6.50
2018-12-27T17:23:13.281Z,6.50
2018-12-27T17:26:20.606Z,6.40
2018-12-27T17:29:23.373Z,6.40
2018-12-27T17:32:26.022Z,6.40
2018-12-27T17:35:28.616Z,6.40
2018-12-27T17:38:32.930Z,6.40
2018-12-27T17:41:36.570Z,6.40
2018-12-27T17:44:41.839Z,6.30
2018-12-27T17:47:44.624Z,6.30
2018-12-27T17:50:51.138Z,6.30
2018-12-27T17:53:53.803Z,6.40
2018-12-27T17:56:56.699Z,6.40
2018-12-27T18:00:00.241Z,6.40
2018-12-27T18:03:03.031Z,6.40
2018-12-27T18:06:08.427Z,6.40
2018-12-27T18:09:11.116Z,6.40
2018-12-27T18:12:13.790Z,6.30
2018-12-27T18:15:16.778Z,6.40
2018-12-27T18:18:19.470Z,6.30
2018-12-27T18:21:22.760Z,6.30
2018-12-27T18:24:26.783Z,6.40
2018-12-27T18:27:32.342Z,6.40
2018-12-27T18:30:35.948Z,6.30
2018-12-27T18:33:39.327Z,6.30
2018-12-27T18:36:44.357Z,6.20
2018-12-27T18:39:47.147Z,6.10
2018-12-27T18:42:50.589Z,6.00
2018-12-27T18:45:54.522Z,6.00
2018-12-27T18:48:57.258Z,6.00
2018-12-27T18:51:59.937Z,6.10
2018-12-27T18:55:02.635Z,6.00
2018-12-27T18:58:05.356Z,6.10
2018-12-27T19:01:08.102Z,6.10
2018-12-27T19:04:10.965Z,6.10
2018-12-27T19:07:13.705Z,6.20
2018-12-27T19:10:16.412Z,6.10
2018-12-27T19:13:19.227Z,6.10
2018-12-27T19:16:21.954Z,6.10
2018-12-27T19:19:24.537Z,6.00
2018-12-27T19:22:40.227Z,6.10
2018-12-27T19:25:44.982Z,6.10
2018-12-27T19:28:47.777Z,6.10
2018-12-27T19:31:51.179Z,6.10
2018-12-27T19:34:58.592Z,6.10
2018-12-27T19:38:03.524Z,6.10
2018-12-27T19:41:08.395Z,6.10
2018-12-27T19:44:12.878Z,6.30
2018-12-27T19:47:15.966Z,6.30
2018-12-27T19:50:19.281Z,6.50
2018-12-27T19:53:24.524Z,6.60
2018-12-27T19:56:27.725Z,6.70
2018-12-27T19:59:31.309Z,6.70
2018-12-27T20:02:35.506Z,6.70
2018-12-27T20:05:38.578Z,6.80
2018-12-27T20:08:43.794Z,6.80
2018-12-27T20:14:44.841Z,6.90
2018-12-27T20:17:48.514Z,6.90
2018-12-27T20:20:51.289Z,7.00
2018-12-27T20:23:53.941Z,6.90
2018-12-27T20:26:56.737Z,7.00
2018-12-27T20:29:59.471Z,7.00
2018-12-27T20:33:02.282Z,7.00
2018-12-27T20:36:04.954Z,7.00
2018-12-27T20:39:07.604Z,7.00
2018-12-27T20:42:10.368Z,7.00
2018-12-27T20:45:13.059Z,7.00
2018-12-27T20:48:15.740Z,7.00
2018-12-27T20:51:19.453Z,7.00
2018-12-27T20:54:22.141Z,7.00
2018-12-27T20:57:24.812Z,7.00
2018-12-27T21:00:28.711Z,6.90
2018-12-27T21:03:31.584Z,6.90
2018-12-27T21:06:34.241Z,6.80
2018-12-27T21:09:36.844Z,6.80
2018-12-27T21:12:39.453Z,6.80
2018-12-27T21:15:42.048Z,6.70
2018-12-27T21:18:44.768Z,6.70
2018-12-27T21:21:47.460Z,6.60
2018-12-27T21:24:50.146Z,6.60
2018-12-27T21:27:52.814Z,6.50
2018-12-27T21:30:55.386Z,6.40
2018-12-27T21:33:57.956Z,6.40
2018-12-27T21:37:00.548Z,6.30
2018-12-27T21:40:03.711Z,6.20
2018-12-27T21:43:06.286Z,6.20
2018-12-27T21:46:08.872Z,6.20
2018-12-27T21:49:11.495Z,6.10
2018-12-27T21:52:14.049Z,6.10
2018-12-27T21:55:16.575Z,6.10
2018-12-27T21:58:19.124Z,6.10
2018-12-27T22:01:21.700Z,6.00
2018-12-27T22:04:24.333Z,6.00
2018-12-27T22:07:26.935Z,6.00
2018-12-27T22:10:29.645Z,5.90
2018-12-27T22:13:32.246Z,5.90
2018-12-27T22:16:38.083Z,5.80
2018-12-27T22:19:40.731Z,5.90
2018-12-27T22:22:43.401Z,5.80
2018-12-27T22:25:48.070Z,5.80
2018-12-27T22:28:50.734Z,5.80
2018-12-27T22:31:53.351Z,5.70
2018-12-27T22:39:33.321Z,5.60
2018-12-27T22:42:33.562Z,5.60
2018-12-27T22:45:36.179Z,5.50
2018-12-27T22:48:38.957Z,5.50
2018-12-27T22:51:41.587Z,5.50
2018-12-27T22:54:44.123Z,5.40
2018-12-27T22:57:46.670Z,5.40
2018-12-27T23:00:49.634Z,5.40
2018-12-27T23:03:52.277Z,5.40
2018-12-27T23:06:54.890Z,5.50
2018-12-27T23:09:57.427Z,5.50
2018-12-27T23:13:00.054Z,5.60
2018-12-27T23:16:02.682Z,5.60
2018-12-27T23:19:05.354Z,5.60
2018-12-27T23:22:08.046Z,5.60
2018-12-27T23:25:11.741Z,5.60
2018-12-27T23:28:14.499Z,5.60
2018-12-27T23:31:17.034Z,5.60
2018-12-27T23:34:19.785Z,5.60
2018-12-27T23:37:22.381Z,5.60
2018-12-27T23:40:25.065Z,5.60
2018-12-27T23:43:27.638Z,5.60
2018-12-27T23:46:30.245Z,5.70
2018-12-27T23:49:32.797Z,5.60
2018-12-27T23:52:35.481Z,5.70
2018-12-27T23:55:38.206Z,5.70
2018-12-27T23:58:40.878Z,5.70
